createdAt,value
2022-08-18T00:00:52.739Z,24.20
2022-08-18T00:02:30.181Z,24.20
2022-08-18T00:04:15.383Z,24.20
2022-08-18T00:05:56.871Z,24.10
2022-08-18T00:07:32.288Z,24.10
2022-08-18T00:09:07.751Z,24.10
2022-08-18T00:10:42.811Z,24.10
2022-08-18T00:12:18.243Z,24.10
2022-08-18T00:13:50.041Z,24.10
2022-08-18T00:15:24.471Z,24.10
2022-08-18T00:16:56.456Z,24.00
2022-08-18T00:18:29.306Z,24.10
2022-08-18T00:20:02.491Z,24.10
2022-08-18T00:21:34.547Z,24.00
2022-08-18T00:23:07.355Z,24.00
2022-08-18T00:24:40.139Z,24.00
2022-08-18T00:26:22.542Z,24.00
2022-08-18T00:27:55.288Z,24.00
2022-08-18T00:29:27.108Z,24.00
2022-08-18T00:31:01.288Z,24.00
2022-08-18T00:32:37.430Z,24.00
2022-08-18T00:34:10.320Z,24.00
2022-08-18T00:35:43.067Z,24.00
2022-08-18T00:37:15.977Z,23.90
2022-08-18T00:38:48.721Z,23.90
2022-08-18T00:40:25.169Z,23.90
2022-08-18T00:41:57.960Z,23.90
2022-08-18T00:43:35.761Z,23.70
2022-08-18T00:45:10.183Z,23.70
2022-08-18T00:46:44.302Z,23.50
2022-08-18T00:48:16.179Z,23.40
2022-08-18T00:49:54.135Z,23.30
2022-08-18T00:51:32.687Z,23.20
2022-08-18T00:53:11.999Z,23.20
2022-08-18T00:54:45.759Z,23.10
2022-08-18T00:56:24.737Z,23.00
2022-08-18T00:58:03.892Z,22.80
2022-08-18T00:59:43.391Z,22.80
2022-08-18T01:01:16.826Z,22.70
2022-08-18T01:02:57.381Z,22.60
2022-08-18T01:04:35.705Z,22.50
2022-08-18T01:06:15.169Z,22.50
2022-08-18T01:07:49.860Z,22.40
2022-08-18T01:09:23.370Z,22.40
2022-08-18T01:10:55.987Z,22.40
2022-08-18T01:12:45.239Z,22.50
2022-08-18T01:14:20.270Z,22.50
2022-08-18T01:15:53.040Z,22.50
2022-08-18T01:17:45.899Z,22.60
2022-08-18T01:19:38.995Z,22.60
2022-08-18T01:21:34.499Z,22.70
2022-08-18T01:23:14.092Z,22.70
2022-08-18T01:25:04.648Z,22.80
2022-08-18T01:26:44.217Z,22.80
2022-08-18T01:28:20.606Z,22.80
2022-08-18T01:29:53.462Z,22.80
2022-08-18T01:31:38.222Z,22.70
2022-08-18T01:33:12.274Z,22.80
2022-08-18T01:34:47.973Z,22.80
2022-08-18T01:36:22.531Z,22.80
2022-08-18T01:37:54.616Z,22.80
2022-08-18T01:41:21.240Z,22.80
2022-08-18T01:41:29.800Z,22.80
2022-08-18T01:43:05.253Z,22.90
2022-08-18T01:44:40.418Z,22.80
2022-08-18T01:46:13.979Z,22.90
2022-08-18T01:47:48.001Z,22.90
2022-08-18T01:49:20.349Z,22.90
2022-08-18T01:50:54.368Z,22.90
2022-08-18T01:52:29.467Z,22.90
2022-08-18T01:54:01.756Z,23.00
2022-08-18T01:55:37.570Z,22.90
2022-08-18T01:57:14.469Z,23.00
2022-08-18T01:58:48.099Z,22.90
2022-08-18T02:00:20.918Z,22.90
2022-08-18T02:01:55.534Z,23.00
2022-08-18T02:03:31.993Z,23.00
2022-08-18T02:05:11.656Z,22.90
2022-08-18T02:06:47.856Z,23.00
2022-08-18T02:08:20.884Z,23.00
2022-08-18T02:09:52.684Z,22.90
2022-08-18T02:11:27.413Z,22.80
2022-08-18T02:12:59.344Z,22.80
2022-08-18T02:14:32.591Z,22.80
2022-08-18T02:16:05.732Z,22.80
2022-08-18T02:17:39.747Z,22.80
2022-08-18T02:19:12.820Z,22.80
2022-08-18T02:20:45.636Z,22.70
2022-08-18T02:22:20.652Z,22.80
2022-08-18T02:23:54.144Z,22.70
2022-08-18T02:25:27.000Z,22.70
2022-08-18T02:27:01.098Z,22.70
2022-08-18T02:28:33.116Z,22.70
2022-08-18T02:30:08.746Z,22.70
2022-08-18T02:31:40.558Z,22.70
2022-08-18T02:33:13.310Z,22.70
2022-08-18T02:34:45.179Z,22.70
2022-08-18T02:36:18.128Z,22.70
2022-08-18T02:37:51.189Z,22.60
2022-08-18T02:39:27.876Z,22.60
2022-08-18T02:41:03.756Z,22.70
2022-08-18T02:42:39.400Z,22.70
2022-08-18T02:44:12.770Z,22.70
2022-08-18T02:45:45.551Z,22.70
2022-08-18T02:47:21.324Z,22.70
2022-08-18T02:48:54.732Z,22.70
2022-08-18T02:50:29.246Z,22.70
2022-08-18T02:52:02.015Z,22.70
2022-08-18T02:53:35.128Z,22.70
2022-08-18T02:55:07.581Z,22.70
2022-08-18T02:56:42.524Z,22.70
2022-08-18T02:58:15.975Z,22.70
2022-08-18T02:59:48.784Z,22.60
2022-08-18T03:01:21.754Z,22.60
2022-08-18T03:02:54.535Z,22.50
2022-08-18T03:04:30.272Z,22.50
2022-08-18T03:06:03.442Z,22.50
2022-08-18T03:07:36.184Z,22.40
2022-08-18T03:09:13.405Z,22.40
2022-08-18T03:10:46.908Z,22.40
2022-08-18T03:12:19.686Z,22.40
2022-08-18T03:13:53.489Z,22.40
2022-08-18T03:15:26.679Z,22.40
2022-08-18T03:17:00.959Z,22.40
2022-08-18T03:18:33.926Z,22.40
2022-08-18T03:20:08.064Z,22.50
2022-08-18T03:21:46.848Z,22.50
2022-08-18T03:23:19.605Z,22.50
2022-08-18T03:25:02.756Z,22.50
2022-08-18T03:26:35.697Z,22.50
2022-08-18T03:28:08.501Z,22.50
2022-08-18T03:29:41.670Z,22.50
2022-08-18T03:31:16.987Z,22.40
2022-08-18T03:32:49.753Z,22.40
2022-08-18T03:34:22.640Z,22.50
2022-08-18T03:35:55.431Z,22.50
2022-08-18T03:37:28.279Z,22.50
2022-08-18T03:39:04.108Z,22.50
2022-08-18T03:40:37.513Z,22.50
2022-08-18T03:42:10.528Z,22.50
2022-08-18T03:43:51.079Z,22.50
2022-08-18T03:45:28.463Z,22.50
2022-08-18T03:47:02.709Z,22.50
2022-08-18T03:48:34.497Z,22.50
2022-08-18T03:50:08.579Z,22.60
2022-08-18T03:51:46.695Z,22.50
2022-08-18T03:53:19.535Z,22.50
2022-08-18T03:54:53.044Z,22.60
2022-08-18T03:56:27.427Z,22.40
2022-08-18T03:58:02.781Z,22.40
2022-08-18T03:59:35.617Z,22.30
2022-08-18T04:01:13.213Z,22.30
2022-08-18T04:03:00.346Z,22.20
2022-08-18T04:04:33.168Z,22.20
2022-08-18T04:06:10.839Z,22.20
2022-08-18T04:07:45.295Z,22.20
2022-08-18T04:09:18.523Z,22.20
2022-08-18T04:10:51.858Z,22.20
2022-08-18T04:12:24.714Z,22.20
2022-08-18T04:13:57.755Z,22.20
2022-08-18T04:15:30.516Z,22.20
2022-08-18T04:17:04.891Z,22.20
2022-08-18T04:18:37.130Z,22.20
2022-08-18T04:20:12.801Z,22.20
2022-08-18T04:21:45.988Z,22.20
2022-08-18T04:23:18.830Z,22.20
2022-08-18T04:24:52.288Z,22.30
2022-08-18T04:26:24.084Z,22.30
2022-08-18T04:28:00.214Z,22.30
2022-08-18T04:29:33.126Z,22.30
2022-08-18T04:31:09.076Z,22.30
2022-08-18T04:32:45.305Z,22.30
2022-08-18T04:34:20.312Z,22.30
2022-08-18T04:35:52.256Z,22.30
2022-08-18T04:37:37.955Z,22.40
2022-08-18T04:39:22.646Z,22.40
2022-08-18T04:40:55.434Z,22.40
2022-08-18T04:42:28.203Z,22.40
2022-08-18T04:44:04.824Z,22.40
2022-08-18T04:45:36.878Z,22.40
2022-08-18T04:47:09.987Z,22.40
2022-08-18T04:48:43.300Z,22.50
2022-08-18T04:50:16.041Z,22.40
2022-08-18T04:52:34.024Z,22.40
2022-08-18T04:54:02.289Z,22.40
2022-08-18T04:55:35.083Z,22.40
2022-08-18T04:57:10.199Z,22.50
2022-08-18T04:58:42.922Z,22.50
2022-08-18T05:00:17.141Z,22.40
2022-08-18T05:01:49.939Z,22.50
2022-08-18T05:03:26.648Z,22.50
2022-08-18T05:05:03.307Z,22.40
2022-08-18T05:06:36.799Z,22.50
2022-08-18T05:08:08.599Z,22.40
2022-08-18T05:09:41.725Z,22.50
2022-08-18T05:11:14.743Z,22.40
2022-08-18T05:12:48.844Z,22.40
2022-08-18T05:14:21.647Z,22.40
2022-08-18T05:16:09.811Z,22.40
2022-08-18T05:17:44.741Z,22.40
2022-08-18T05:19:23.242Z,22.40
2022-08-18T05:21:00.009Z,22.40
2022-08-18T05:22:39.023Z,22.40
2022-08-18T05:24:11.799Z,22.40
2022-08-18T05:25:45.021Z,22.40
2022-08-18T05:27:17.836Z,22.50
2022-08-18T05:28:51.229Z,22.50
2022-08-18T05:30:37.500Z,22.50
2022-08-18T05:32:10.507Z,22.50
2022-08-18T05:34:04.024Z,22.60
2022-08-18T05:35:41.259Z,22.50
2022-08-18T05:37:24.981Z,22.60
2022-08-18T05:39:05.072Z,22.60
2022-08-18T05:40:37.362Z,22.60
2022-08-18T05:42:14.208Z,22.60
2022-08-18T05:43:51.844Z,22.60
2022-08-18T05:45:25.499Z,22.60
2022-08-18T05:47:01.750Z,22.60
2022-08-18T05:48:39.820Z,22.60
2022-08-18T05:50:19.371Z,22.50
2022-08-18T05:51:55.662Z,22.50
2022-08-18T05:53:44.253Z,22.50
2022-08-18T05:55:41.816Z,22.50
2022-08-18T05:57:21.251Z,22.50
2022-08-18T05:58:57.349Z,22.50
2022-08-18T06:00:31.685Z,22.60
2022-08-18T06:02:11.782Z,22.60
2022-08-18T06:03:50.615Z,22.60
2022-08-18T06:05:28.565Z,22.60
2022-08-18T06:07:05.475Z,22.60
2022-08-18T06:08:44.524Z,22.60
2022-08-18T06:10:19.008Z,22.60
2022-08-18T06:11:54.057Z,22.60
2022-08-18T06:13:26.999Z,22.60
2022-08-18T06:15:06.268Z,22.60
2022-08-18T06:16:50.435Z,22.60
2022-08-18T06:18:42.693Z,22.60
2022-08-18T06:20:23.535Z,22.60
2022-08-18T06:22:03.722Z,22.60
2022-08-18T06:23:47.720Z,22.60
2022-08-18T06:25:26.322Z,22.60
2022-08-18T06:27:08.262Z,22.60
2022-08-18T06:28:52.588Z,22.60
2022-08-18T06:30:33.036Z,22.70
2022-08-18T06:32:17.809Z,22.70
2022-08-18T06:33:58.567Z,22.70
2022-08-18T06:35:37.274Z,22.60
2022-08-18T06:37:16.471Z,22.70
2022-08-18T06:39:01.355Z,22.70
2022-08-18T06:40:34.365Z,22.60
2022-08-18T06:42:07.328Z,22.60
2022-08-18T06:43:44.792Z,22.60
2022-08-18T06:45:19.800Z,22.60
2022-08-18T06:46:57.093Z,22.60
2022-08-18T06:48:38.540Z,22.60
2022-08-18T06:50:21.350Z,22.60
2022-08-18T06:51:54.126Z,22.60
2022-08-18T06:54:00.796Z,22.60
2022-08-18T06:55:37.304Z,22.60
2022-08-18T06:57:27.719Z,22.60
2022-08-18T06:59:23.412Z,22.50
2022-08-18T07:00:59.272Z,22.50
2022-08-18T07:02:45.436Z,22.50
2022-08-18T07:04:40.180Z,22.50
2022-08-18T07:06:29.463Z,22.50
2022-08-18T07:08:11.465Z,22.50
2022-08-18T07:09:43.824Z,22.50
2022-08-18T07:11:22.881Z,22.50
2022-08-18T07:13:07.630Z,22.50
2022-08-18T07:14:46.072Z,22.50
2022-08-18T07:16:46.997Z,22.50
2022-08-18T07:18:22.521Z,22.50
2022-08-18T07:19:57.996Z,22.60
2022-08-18T07:21:34.372Z,22.50
2022-08-18T07:23:07.981Z,22.50
2022-08-18T07:24:44.051Z,22.50
2022-08-18T07:26:18.375Z,22.50
2022-08-18T07:27:52.828Z,22.50
2022-08-18T07:29:25.847Z,22.50
2022-08-18T07:31:24.740Z,22.50
2022-08-18T07:33:05.882Z,22.50
2022-08-18T07:34:41.098Z,22.50
2022-08-18T07:36:16.775Z,22.60
2022-08-18T07:37:55.592Z,22.60
2022-08-18T07:39:35.682Z,22.60
2022-08-18T07:41:16.445Z,22.60
2022-08-18T07:43:02.009Z,22.60
2022-08-18T07:44:44.232Z,22.60
2022-08-18T07:46:24.563Z,22.60
2022-08-18T07:48:15.842Z,22.60
2022-08-18T07:50:23.055Z,22.60
2022-08-18T07:51:57.709Z,22.60
2022-08-18T07:53:42.172Z,22.60
2022-08-18T07:55:26.739Z,22.60
2022-08-18T07:57:07.333Z,22.60
2022-08-18T07:58:48.632Z,22.60
2022-08-18T08:00:54.819Z,22.60
2022-08-18T08:02:34.187Z,22.60
2022-08-18T08:04:26.108Z,22.60
2022-08-18T08:06:06.652Z,22.50
2022-08-18T08:07:47.000Z,22.60
2022-08-18T08:09:29.761Z,22.60
2022-08-18T08:11:13.137Z,22.60
2022-08-18T08:13:05.882Z,22.50
2022-08-18T08:14:45.728Z,22.50
2022-08-18T08:16:26.979Z,22.50
2022-08-18T08:18:07.598Z,22.50
2022-08-18T08:20:03.418Z,22.40
2022-08-18T08:21:41.387Z,22.50
2022-08-18T08:23:27.325Z,22.50
2022-08-18T08:25:28.372Z,22.50
2022-08-18T08:27:10.684Z,22.50
2022-08-18T08:28:53.709Z,22.50
2022-08-18T08:30:34.311Z,22.50
2022-08-18T08:32:14.579Z,22.60
2022-08-18T08:33:52.183Z,22.60
2022-08-18T08:35:48.562Z,22.60
2022-08-18T08:37:28.672Z,22.70
2022-08-18T08:39:05.830Z,22.70
2022-08-18T08:40:47.747Z,22.80
2022-08-18T08:42:30.845Z,22.80
2022-08-18T08:44:10.155Z,22.80
2022-08-18T08:45:48.992Z,22.80
2022-08-18T08:47:26.089Z,22.90
2022-08-18T08:49:07.311Z,23.00
2022-08-18T08:50:44.683Z,22.90
2022-08-18T08:52:22.299Z,23.00
2022-08-18T08:54:00.255Z,23.00
2022-08-18T08:55:37.534Z,23.00
2022-08-18T08:57:11.752Z,23.10
2022-08-18T08:58:50.620Z,23.10
2022-08-18T09:00:23.031Z,23.10
2022-08-18T09:02:31.992Z,23.10
2022-08-18T09:04:22.298Z,23.10
2022-08-18T09:06:04.711Z,23.10
2022-08-18T09:07:54.708Z,23.10
2022-08-18T09:09:48.631Z,23.20
2022-08-18T09:11:40.480Z,23.20
2022-08-18T09:13:40.085Z,23.20
2022-08-18T09:15:36.586Z,23.20
2022-08-18T09:17:33.853Z,23.20
2022-08-18T09:19:40.081Z,23.20
2022-08-18T09:21:25.927Z,23.30
2022-08-18T09:23:05.608Z,23.30
2022-08-18T09:24:43.204Z,23.30
2022-08-18T09:26:41.036Z,23.30
2022-08-18T09:28:19.029Z,23.40
2022-08-18T09:29:53.924Z,23.40
2022-08-18T09:31:31.876Z,23.40
2022-08-18T09:33:20.425Z,23.40
2022-08-18T09:35:05.478Z,23.40
2022-08-18T09:36:55.278Z,23.40
2022-08-18T09:38:49.847Z,23.40
2022-08-18T09:41:02.668Z,23.40
2022-08-18T09:42:49.652Z,23.40
2022-08-18T09:44:58.841Z,23.40
2022-08-18T09:46:52.394Z,23.40
2022-08-18T09:48:30.497Z,23.40
2022-08-18T09:50:40.139Z,23.40
2022-08-18T09:52:56.058Z,23.40
2022-08-18T09:54:33.035Z,23.40
2022-08-18T09:56:07.028Z,23.40
2022-08-18T09:57:43.982Z,23.40
2022-08-18T09:59:59.910Z,23.50
2022-08-18T10:01:36.535Z,23.50
2022-08-18T10:03:25.783Z,23.40
2022-08-18T10:05:31.671Z,23.40
2022-08-18T10:07:21.638Z,23.40
2022-08-18T10:09:27.229Z,23.40
2022-08-18T10:11:24.597Z,23.40
2022-08-18T10:13:08.659Z,23.40
2022-08-18T10:15:10.002Z,23.50
2022-08-18T10:17:15.860Z,23.50
2022-08-18T10:18:58.732Z,23.50
2022-08-18T10:20:46.744Z,23.50
2022-08-18T10:22:39.391Z,23.60
2022-08-18T10:24:36.214Z,23.60
2022-08-18T10:27:09.281Z,23.60
2022-08-18T10:28:58.044Z,23.60
2022-08-18T10:32:52.072Z,23.50
2022-08-18T10:34:40.002Z,23.50
2022-08-18T10:36:46.340Z,23.40
2022-08-18T10:38:53.411Z,23.40
2022-08-18T10:40:28.139Z,23.40
2022-08-18T10:42:11.294Z,23.40
2022-08-18T10:43:55.635Z,23.40
2022-08-18T10:46:23.037Z,23.40
2022-08-18T10:47:42.531Z,23.40
2022-08-18T10:49:25.175Z,23.40
2022-08-18T10:51:09.940Z,23.50
2022-08-18T10:55:48.762Z,23.60
2022-08-18T10:57:33.423Z,23.70
2022-08-18T10:59:20.438Z,23.70
2022-08-18T11:01:14.403Z,23.80
2022-08-18T11:03:42.452Z,23.90
2022-08-18T11:05:08.077Z,23.90
2022-08-18T11:06:48.105Z,24.00
2022-08-18T11:08:21.908Z,24.00
2022-08-18T11:10:27.816Z,24.00
2022-08-18T11:12:00.068Z,24.00
2022-08-18T11:13:45.789Z,24.00
2022-08-18T11:15:24.179Z,24.10
2022-08-18T11:17:07.477Z,24.10
2022-08-18T11:18:44.785Z,24.20
2022-08-18T11:20:21.872Z,24.20
2022-08-18T11:21:57.377Z,24.20
2022-08-18T11:23:29.157Z,24.20
2022-08-18T11:25:18.528Z,24.20
2022-08-18T11:26:54.744Z,24.30
2022-08-18T11:28:31.817Z,24.40
2022-08-18T11:30:07.308Z,24.50
2022-08-18T11:31:40.079Z,24.60
2022-08-18T11:33:22.856Z,24.70
2022-08-18T11:35:03.452Z,24.80
2022-08-18T11:36:36.325Z,24.90
2022-08-18T11:38:13.782Z,24.90
2022-08-18T11:39:58.475Z,25.00
2022-08-18T11:41:48.054Z,25.10
2022-08-18T11:43:29.553Z,25.10
2022-08-18T11:45:08.266Z,25.10
2022-08-18T11:46:41.522Z,25.20
2022-08-18T11:48:25.137Z,25.30
2022-08-18T11:50:11.581Z,25.30
2022-08-18T11:51:57.880Z,25.40
2022-08-18T11:53:44.262Z,25.50
2022-08-18T11:55:23.822Z,25.60
2022-08-18T11:57:36.899Z,25.60
2022-08-18T11:59:52.771Z,25.70
2022-08-18T12:01:40.929Z,25.70
2022-08-18T12:03:22.450Z,25.70
2022-08-18T12:05:03.224Z,25.80
2022-08-18T12:06:38.682Z,25.80
2022-08-18T12:08:54.682Z,25.80
2022-08-18T12:10:26.551Z,25.90
2022-08-18T12:12:05.572Z,26.00
2022-08-18T12:13:40.136Z,26.10
2022-08-18T12:15:29.587Z,26.10
2022-08-18T12:17:17.560Z,26.10
2022-08-18T12:18:50.697Z,26.30
2022-08-18T12:20:26.663Z,26.40
2022-08-18T12:22:03.894Z,26.40
2022-08-18T12:23:52.315Z,26.60
2022-08-18T12:25:25.894Z,26.70
2022-08-18T12:27:00.894Z,26.70
2022-08-18T12:28:32.808Z,26.80
2022-08-18T12:30:07.702Z,26.80
2022-08-18T12:31:51.405Z,26.80
2022-08-18T12:35:22.151Z,26.80
2022-08-18T12:37:00.922Z,26.80
2022-08-18T12:38:36.462Z,26.90
2022-08-18T12:40:12.202Z,26.90
2022-08-18T12:41:45.098Z,26.90
2022-08-18T12:43:18.137Z,26.90
2022-08-18T12:44:53.263Z,26.90
2022-08-18T12:46:26.197Z,26.90
2022-08-18T12:48:44.450Z,26.90
2022-08-18T12:49:55.528Z,26.90
2022-08-18T12:51:30.385Z,26.90
2022-08-18T12:53:02.822Z,26.90
2022-08-18T12:54:36.029Z,27.00
2022-08-18T12:56:23.102Z,27.00
2022-08-18T12:57:56.760Z,27.00
2022-08-18T12:59:32.583Z,27.00
2022-08-18T13:01:10.508Z,27.00
2022-08-18T13:02:43.335Z,27.00
2022-08-18T13:04:18.602Z,27.10
2022-08-18T13:05:51.774Z,27.00
2022-08-18T13:07:26.705Z,27.00
2022-08-18T13:09:03.163Z,27.00
2022-08-18T13:10:51.315Z,27.00
2022-08-18T13:12:29.084Z,27.00
2022-08-18T13:14:03.155Z,27.00
2022-08-18T13:15:44.474Z,27.00
2022-08-18T13:17:34.004Z,27.10
2022-08-18T13:19:07.690Z,27.10
2022-08-18T13:20:45.095Z,27.10
2022-08-18T13:22:17.049Z,27.20
2022-08-18T13:23:51.180Z,27.20
2022-08-18T13:25:32.199Z,27.20
2022-08-18T13:27:13.613Z,27.10
2022-08-18T13:28:58.375Z,27.10
2022-08-18T13:30:32.678Z,27.00
2022-08-18T13:32:09.283Z,27.00
2022-08-18T13:33:57.197Z,26.90
2022-08-18T13:35:38.311Z,26.90
2022-08-18T13:37:17.280Z,27.00
2022-08-18T13:38:54.972Z,26.90
2022-08-18T13:40:29.480Z,26.90
2022-08-18T13:42:26.657Z,26.80
2022-08-18T13:43:57.051Z,26.70
2022-08-18T13:45:30.587Z,26.70
2022-08-18T13:47:05.927Z,26.60
2022-08-18T13:48:42.000Z,26.70
2022-08-18T13:50:15.373Z,26.80
2022-08-18T13:51:51.976Z,26.80
2022-08-18T13:53:27.395Z,26.80
2022-08-18T13:55:01.696Z,26.80
2022-08-18T13:56:40.955Z,26.90
2022-08-18T13:58:24.012Z,26.90
2022-08-18T13:59:56.773Z,26.90
2022-08-18T14:01:51.617Z,26.90
2022-08-18T14:03:42.216Z,26.90
2022-08-18T14:05:16.218Z,26.90
2022-08-18T14:06:57.190Z,26.90
2022-08-18T14:08:31.963Z,26.80
2022-08-18T14:10:10.700Z,26.70
2022-08-18T14:11:51.247Z,26.70
2022-08-18T14:13:25.312Z,26.80
2022-08-18T14:14:58.205Z,26.90
2022-08-18T14:16:31.466Z,26.90
2022-08-18T14:18:05.942Z,26.90
2022-08-18T14:19:56.301Z,27.00
2022-08-18T14:21:49.471Z,27.00
2022-08-18T14:23:51.412Z,27.00
2022-08-18T14:25:44.630Z,26.90
2022-08-18T14:27:18.065Z,26.90
2022-08-18T14:28:50.836Z,26.90
2022-08-18T14:30:25.485Z,26.90
2022-08-18T14:31:58.428Z,26.90
2022-08-18T14:33:49.953Z,26.90
2022-08-18T14:36:04.564Z,26.90
2022-08-18T14:37:17.695Z,26.90
2022-08-18T14:38:51.454Z,27.00
2022-08-18T14:40:24.656Z,27.00
2022-08-18T14:41:58.446Z,27.10
2022-08-18T14:43:31.339Z,27.20
2022-08-18T14:45:31.133Z,27.20
2022-08-18T14:47:08.211Z,27.20
2022-08-18T14:48:42.416Z,27.20
2022-08-18T14:50:15.367Z,27.30
2022-08-18T14:51:52.245Z,27.30
2022-08-18T14:53:28.395Z,27.30
2022-08-18T14:55:01.642Z,27.30
2022-08-18T14:56:38.748Z,27.30
2022-08-18T14:58:13.679Z,27.40
2022-08-18T14:59:47.495Z,27.30
2022-08-18T15:01:20.932Z,27.30
2022-08-18T15:02:57.335Z,27.30
2022-08-18T15:04:32.359Z,27.30
2022-08-18T15:06:17.103Z,27.30
2022-08-18T15:07:55.683Z,27.30
2022-08-18T15:09:30.686Z,27.30
2022-08-18T15:11:11.845Z,27.30
2022-08-18T15:12:45.147Z,27.30
2022-08-18T15:14:19.582Z,27.30
2022-08-18T15:15:52.802Z,27.30
2022-08-18T15:17:27.163Z,27.30
2022-08-18T15:19:03.331Z,27.40
2022-08-18T15:21:35.215Z,27.40
2022-08-18T15:23:27.950Z,27.40
2022-08-18T15:25:18.519Z,27.50
2022-08-18T15:26:58.001Z,27.50
2022-08-18T15:28:35.878Z,27.50
2022-08-18T15:30:19.615Z,27.40
2022-08-18T15:31:54.555Z,27.40
2022-08-18T15:33:32.395Z,27.30
2022-08-18T15:35:11.716Z,27.30
2022-08-18T15:36:44.767Z,27.30
2022-08-18T15:38:19.839Z,27.30
2022-08-18T15:40:02.839Z,27.30
2022-08-18T15:41:43.909Z,27.40
2022-08-18T15:43:19.371Z,27.40
2022-08-18T15:44:52.853Z,27.40
2022-08-18T15:46:28.107Z,27.40
2022-08-18T15:48:03.590Z,27.30
2022-08-18T15:49:36.351Z,27.40
2022-08-18T15:51:12.087Z,27.30
2022-08-18T15:52:49.767Z,27.40
2022-08-18T15:54:22.746Z,27.30
2022-08-18T15:55:58.319Z,27.30
2022-08-18T15:57:39.782Z,27.30
2022-08-18T15:59:34.196Z,27.30
2022-08-18T16:01:29.816Z,27.30
2022-08-18T16:03:08.989Z,27.30
2022-08-18T16:04:45.000Z,27.30
2022-08-18T16:06:27.829Z,27.20
2022-08-18T16:08:06.902Z,27.20
2022-08-18T16:09:39.663Z,27.20
2022-08-18T16:11:24.559Z,27.10
2022-08-18T16:13:04.487Z,27.20
2022-08-18T16:14:39.023Z,27.10
2022-08-18T16:16:14.223Z,27.10
2022-08-18T16:18:01.699Z,27.10
2022-08-18T16:19:35.730Z,27.10
2022-08-18T16:21:11.038Z,27.00
2022-08-18T16:22:43.842Z,27.00
2022-08-18T16:24:18.278Z,27.00
2022-08-18T16:25:51.189Z,27.00
2022-08-18T16:27:23.934Z,27.00
2022-08-18T16:28:58.294Z,27.00
2022-08-18T16:30:33.557Z,26.90
2022-08-18T16:32:16.464Z,26.90
2022-08-18T16:33:48.468Z,26.90
2022-08-18T16:35:24.442Z,26.90
2022-08-18T16:36:57.305Z,26.90
2022-08-18T16:38:30.686Z,26.90
2022-08-18T16:40:03.867Z,26.90
2022-08-18T16:41:36.715Z,26.90
2022-08-18T16:43:10.323Z,26.80
2022-08-18T16:44:43.247Z,26.80
2022-08-18T16:46:21.218Z,26.80
2022-08-18T16:47:55.707Z,26.80
2022-08-18T16:49:28.646Z,26.80
2022-08-18T16:51:02.733Z,26.70
2022-08-18T16:52:36.030Z,26.70
2022-08-18T16:54:08.818Z,26.70
2022-08-18T16:55:43.469Z,26.70
2022-08-18T16:57:53.322Z,26.60
2022-08-18T16:59:45.692Z,26.60
2022-08-18T17:01:48.983Z,26.60
2022-08-18T17:03:39.654Z,26.60
2022-08-18T17:05:12.742Z,26.50
2022-08-18T17:06:47.291Z,26.50
2022-08-18T17:08:20.694Z,26.50
2022-08-18T17:09:53.506Z,26.50
2022-08-18T17:11:27.845Z,26.50
2022-08-18T17:13:00.603Z,26.50
2022-08-18T17:14:39.937Z,26.50
2022-08-18T17:16:14.034Z,26.50
2022-08-18T17:17:47.328Z,26.50
2022-08-18T17:19:20.183Z,26.50
2022-08-18T17:20:52.229Z,26.50
2022-08-18T17:22:29.451Z,26.50
2022-08-18T17:24:04.373Z,26.40
2022-08-18T17:25:38.798Z,26.40
2022-08-18T17:27:26.917Z,26.40
2022-08-18T17:29:06.380Z,26.30
2022-08-18T17:30:46.447Z,26.40
2022-08-18T17:32:23.500Z,26.30
2022-08-18T17:34:02.011Z,26.30
2022-08-18T17:35:36.935Z,26.30
2022-08-18T17:37:11.671Z,26.30
2022-08-18T17:38:50.284Z,26.30
2022-08-18T17:40:29.030Z,26.30
2022-08-18T17:42:19.593Z,26.20
2022-08-18T17:43:53.217Z,26.20
2022-08-18T17:45:26.104Z,26.20
2022-08-18T17:47:02.284Z,26.20
2022-08-18T17:48:42.214Z,26.20
2022-08-18T17:50:46.947Z,26.20
2022-08-18T17:52:22.911Z,26.20
2022-08-18T17:54:00.122Z,26.20
2022-08-18T17:55:39.190Z,26.20
2022-08-18T17:57:14.955Z,26.20
2022-08-18T17:58:55.674Z,26.20
2022-08-18T18:00:30.253Z,26.30
2022-08-18T18:02:19.032Z,26.30
2022-08-18T18:04:02.307Z,26.30
2022-08-18T18:05:39.986Z,26.30
2022-08-18T18:07:28.102Z,26.20
2022-08-18T18:09:04.939Z,26.30
2022-08-18T18:11:02.416Z,26.20
2022-08-18T18:12:37.129Z,26.20
2022-08-18T18:14:25.298Z,26.20
2022-08-18T18:16:00.691Z,26.20
2022-08-18T18:17:37.589Z,26.10
2022-08-18T18:19:14.186Z,26.10
2022-08-18T18:20:46.107Z,26.10
2022-08-18T18:22:21.359Z,26.10
2022-08-18T18:24:11.239Z,26.10
2022-08-18T18:25:45.578Z,26.10
2022-08-18T18:27:33.339Z,26.00
2022-08-18T18:29:20.069Z,26.00
2022-08-18T18:30:53.958Z,26.00
2022-08-18T18:32:29.894Z,26.00
2022-08-18T18:34:06.828Z,26.00
2022-08-18T18:35:58.761Z,25.90
2022-08-18T18:37:33.186Z,25.90
2022-08-18T18:39:10.283Z,25.90
2022-08-18T18:40:58.770Z,25.90
2022-08-18T18:42:35.807Z,25.80
2022-08-18T18:44:10.853Z,25.80
2022-08-18T18:45:57.133Z,25.80
2022-08-18T18:47:48.623Z,25.80
2022-08-18T18:49:26.774Z,25.80
2022-08-18T18:51:10.309Z,25.80
2022-08-18T18:52:51.621Z,25.70
2022-08-18T18:54:40.356Z,25.70
2022-08-18T18:56:20.540Z,25.60
2022-08-18T18:58:13.442Z,25.60
2022-08-18T19:01:41.707Z,25.50
2022-08-18T19:03:21.651Z,25.50
2022-08-18T19:05:04.486Z,25.40
2022-08-18T19:06:47.099Z,25.40
2022-08-18T19:08:31.129Z,25.40
2022-08-18T19:10:10.211Z,25.40
2022-08-18T19:11:59.490Z,25.40
2022-08-18T19:13:40.355Z,25.40
2022-08-18T19:15:15.525Z,25.30
2022-08-18T19:16:55.165Z,25.30
2022-08-18T19:18:29.543Z,25.30
2022-08-18T19:20:08.500Z,25.30
2022-08-18T19:22:03.083Z,25.30
2022-08-18T19:23:45.026Z,25.20
2022-08-18T19:25:21.896Z,25.30
2022-08-18T19:27:01.946Z,25.20
2022-08-18T19:29:01.116Z,25.20
2022-08-18T19:30:34.180Z,25.20
2022-08-18T19:32:16.216Z,25.20
2022-08-18T19:33:53.768Z,25.10
2022-08-18T19:35:37.894Z,25.10
2022-08-18T19:37:27.365Z,25.00
2022-08-18T19:39:13.840Z,25.00
2022-08-18T19:40:51.122Z,25.00
2022-08-18T19:42:35.369Z,25.00
2022-08-18T19:44:17.490Z,24.90
2022-08-18T19:45:55.355Z,24.90
2022-08-18T19:47:36.899Z,24.90
2022-08-18T19:49:19.348Z,24.90
2022-08-18T19:50:56.542Z,24.90
2022-08-18T19:52:46.641Z,24.80
2022-08-18T19:54:47.508Z,24.80
2022-08-18T19:56:39.456Z,24.80
2022-08-18T19:58:36.278Z,24.80
2022-08-18T20:00:22.680Z,24.70
2022-08-18T20:02:10.908Z,24.70
2022-08-18T20:03:59.477Z,24.70
2022-08-18T20:05:44.338Z,24.70
2022-08-18T20:07:52.043Z,24.60
2022-08-18T20:09:43.847Z,24.60
2022-08-18T20:11:42.500Z,24.60
2022-08-18T20:13:33.080Z,24.60
2022-08-18T20:15:15.977Z,24.60
2022-08-18T20:17:13.943Z,24.60
2022-08-18T20:18:48.953Z,24.60
2022-08-18T20:20:23.124Z,24.60
2022-08-18T20:22:02.939Z,24.60
2022-08-18T20:23:38.741Z,24.50
2022-08-18T20:25:42.332Z,24.60
2022-08-18T20:27:27.306Z,24.50
2022-08-18T20:29:10.892Z,24.50
2022-08-18T20:30:54.292Z,24.50
2022-08-18T20:32:31.827Z,24.50
2022-08-18T20:34:14.068Z,24.50
2022-08-18T20:36:04.115Z,24.50
2022-08-18T20:37:36.891Z,24.50
2022-08-18T20:39:35.279Z,24.50
2022-08-18T20:41:38.067Z,24.50
2022-08-18T20:43:31.550Z,24.50
2022-08-18T20:45:12.735Z,24.40
2022-08-18T20:46:56.511Z,24.40
2022-08-18T20:48:42.533Z,24.40
2022-08-18T20:50:51.747Z,24.40
2022-08-18T20:52:35.899Z,24.40
2022-08-18T20:54:25.991Z,24.40
2022-08-18T20:56:13.089Z,24.40
2022-08-18T20:58:10.993Z,24.40
2022-08-18T20:59:54.734Z,24.40
2022-08-18T21:01:30.520Z,24.40
2022-08-18T21:03:09.360Z,24.40
2022-08-18T21:04:50.940Z,24.40
2022-08-18T21:06:29.224Z,24.40
2022-08-18T21:08:07.294Z,24.30
2022-08-18T21:09:40.211Z,24.30
2022-08-18T21:11:27.176Z,24.30
2022-08-18T21:13:06.485Z,24.30
2022-08-18T21:14:39.235Z,24.30
2022-08-18T21:16:14.295Z,24.30
2022-08-18T21:18:03.226Z,24.30
2022-08-18T21:19:42.059Z,24.30
2022-08-18T21:21:26.804Z,24.20
2022-08-18T21:23:06.403Z,24.20
2022-08-18T21:24:42.096Z,24.20
2022-08-18T21:26:16.723Z,24.20
2022-08-18T21:27:49.495Z,24.10
2022-08-18T21:29:22.806Z,24.10
2022-08-18T21:31:42.634Z,24.00
2022-08-18T21:32:51.278Z,24.00
2022-08-18T21:34:34.326Z,24.00
2022-08-18T21:36:14.508Z,23.90
2022-08-18T21:37:56.220Z,23.90
2022-08-18T21:39:28.992Z,23.80
2022-08-18T21:41:02.209Z,23.80